Terminal Aerodrome Forecast
Issued by NWS

Home | Current Version | Previous Version | Text Only | Print | Product List | Glossary On
Versions: 1 2 3 4 5 6 7 8 9 10 11 12 13 14 15 16 17 18 19 20
000
FTUS44 KCRP 141100 CCB
TAFALI
TAF COR
KALI 141150Z 1412/1512 VRB04KT 3SM BR SKC
      TEMPO 1412/1413 3/4SM BR FEW002
     FM141400 18008KT P6SM SCT035
     FM141900 13014G21KT P6SM FEW060
     FM150200 17006KT P6SM SKC=

USA.gov is the U.S. government's official web portal to all federal, state and local government web resources and services.